Williams Junction, Arkansas
Current Conditions -  °F | °C
As of 3:53 PM on Monday 26 Jan 2015 (Local Time) from KRUE Reporting Station
Clear Clear  
Wind Chill: 59°   Ceiling: Unl
Heat Index: 59°   Visibility: 10mi
Dew Point: 33°   Wind: 8mph
Humidity: 38%   Direction: 300°WNW
Pressure: 29.97"   Gusts: NA
Location:  34.9067°N, 93.0072°W
Report Text: KRUE 262153Z AUTO 30007KT 10SM CLR 15/01 A2997 RMK AO2 SLP144 T01500006
Loading
Personal Weather Stations






























Interactive Weather Map New forecast layout! Learn more

10-Day Weather Forecast

Advertisements
Track Severe Weather on mobile